Terminal Aerodrome Forecast
Issued by NWS Pittsburgh, PA

Current Version | Previous Version | Graphics & Text | Print | Product List | Glossary On
Versions: 1 2 3 4 5 6 7 8 9 10 11 12 13 14 15 16 17 18 19 20 21 22 23 24 25 26 27
000
FTUS41 KPBZ 221900 AAB
TAFPIT
TAF AMD
KPIT 221917Z 2219/2324 24012G26KT P6SM FEW022 BKN035 OVC050
      TEMPO 2219/2220 6SM -TSRA BKN030CB
     FM222100 30012G22KT P6SM BKN035
     FM230200 33007KT P6SM BKN025
     FM231500 34010G18KT P6SM BKN040=

USA.gov is the U.S. government's official web portal to all federal, state and local government web resources and services.